createdAt,value
2018-06-17T00:01:10.501Z,14.59
2018-06-17T00:03:39.337Z,14.59
2018-06-17T00:06:08.165Z,14.59
2018-06-17T00:08:37.097Z,14.57
2018-06-17T00:11:05.975Z,14.58
2018-06-17T00:13:34.803Z,14.56
2018-06-17T00:16:03.631Z,14.56
2018-06-17T00:18:32.416Z,14.55
2018-06-17T00:21:01.310Z,14.55
2018-06-17T00:23:30.511Z,14.56
2018-06-17T00:25:59.316Z,14.54
2018-06-17T00:28:28.117Z,14.54
2018-06-17T00:30:56.952Z,14.50
2018-06-17T00:33:25.775Z,14.48
2018-06-17T00:35:54.571Z,14.46
2018-06-17T00:38:23.380Z,14.45
2018-06-17T00:40:52.167Z,14.44
2018-06-17T00:43:20.934Z,14.43
2018-06-17T00:45:49.751Z,14.42
2018-06-17T00:48:18.550Z,14.40
2018-06-17T00:50:47.321Z,14.37
2018-06-17T00:53:16.275Z,14.34
2018-06-17T00:55:45.101Z,14.32
2018-06-17T00:58:13.903Z,14.29
2018-06-17T01:00:42.893Z,14.27
2018-06-17T01:03:11.715Z,14.25
2018-06-17T01:05:40.472Z,14.25
2018-06-17T01:08:09.264Z,14.27
2018-06-17T01:10:38.076Z,14.23
2018-06-17T01:13:06.874Z,14.24
2018-06-17T01:15:35.825Z,14.23
2018-06-17T01:18:04.602Z,14.24
2018-06-17T01:20:33.395Z,14.24
2018-06-17T01:23:02.388Z,14.22
2018-06-17T01:25:31.160Z,14.20
2018-06-17T01:27:59.914Z,14.20
2018-06-17T01:30:28.766Z,14.21
2018-06-17T01:32:57.536Z,14.23
2018-06-17T01:35:26.324Z,14.25
2018-06-17T01:37:55.250Z,14.28
2018-06-17T01:40:24.121Z,14.29
2018-06-17T01:42:52.878Z,14.28
2018-06-17T01:45:21.749Z,14.20
2018-06-17T01:47:50.542Z,14.26
2018-06-17T01:50:19.291Z,14.29
2018-06-17T01:52:48.101Z,14.28
2018-06-17T01:55:16.921Z,14.29
2018-06-17T01:57:45.704Z,14.27
2018-06-17T02:00:14.807Z,14.26
2018-06-17T02:02:43.666Z,14.23
2018-06-17T02:05:17.441Z,14.22
2018-06-17T02:07:51.287Z,14.20
2018-06-17T02:10:25.195Z,14.19
2018-06-17T02:12:53.994Z,14.17
2018-06-17T02:15:22.782Z,14.16
2018-06-17T02:17:51.761Z,14.10
2018-06-17T02:20:20.528Z,14.10
2018-06-17T02:22:49.326Z,14.08
2018-06-17T02:25:18.492Z,14.08
2018-06-17T02:27:47.324Z,14.07
2018-06-17T02:30:16.091Z,13.99
2018-06-17T02:32:44.940Z,14.03
2018-06-17T02:35:13.687Z,14.02
2018-06-17T02:37:42.446Z,14.00
2018-06-17T02:40:11.449Z,14.00
2018-06-17T02:42:40.222Z,13.98
2018-06-17T02:45:14.427Z,14.02
2018-06-17T02:47:48.272Z,14.03
2018-06-17T02:50:22.244Z,14.02
2018-06-17T02:52:56.167Z,14.08
2018-06-17T02:55:24.978Z,14.09
2018-06-17T02:57:53.719Z,14.11
2018-06-17T03:00:22.505Z,14.14
2018-06-17T03:02:51.303Z,14.19
2018-06-17T03:05:21.396Z,14.25
2018-06-17T03:07:50.192Z,14.29
2018-06-17T03:10:19.186Z,14.37
2018-06-17T03:12:48.031Z,14.44
2018-06-17T03:15:16.817Z,14.52
2018-06-17T03:17:45.602Z,14.61
2018-06-17T03:20:14.333Z,14.73
2018-06-17T03:22:43.104Z,14.86
2018-06-17T03:25:17.272Z,15.07
2018-06-17T03:27:51.088Z,15.52
2018-06-17T03:30:25.110Z,16.34
2018-06-17T03:32:58.906Z,17.48
2018-06-17T03:35:32.972Z,18.74
2018-06-17T03:38:01.724Z,19.73
2018-06-17T03:40:30.490Z,20.99
2018-06-17T03:42:59.475Z,22.14
2018-06-17T03:45:28.239Z,23.30
2018-06-17T03:47:57.008Z,24.23
2018-06-17T03:50:26.104Z,24.94
2018-06-17T03:52:54.867Z,25.69
2018-06-17T03:55:23.650Z,26.32
2018-06-17T03:57:52.588Z,27.12
2018-06-17T04:00:21.390Z,28.06
2018-06-17T04:02:50.157Z,28.78
2018-06-17T04:05:24.327Z,29.19
2018-06-17T04:07:53.097Z,29.90
2018-06-17T04:10:22.046Z,30.49
2018-06-17T04:12:50.929Z,30.69
2018-06-17T04:15:19.793Z,30.84
2018-06-17T04:17:48.584Z,31.45
2018-06-17T04:20:17.538Z,31.72
2018-06-17T04:22:46.290Z,32.34
2018-06-17T04:25:15.128Z,32.89
2018-06-17T04:27:44.300Z,33.83
2018-06-17T04:30:13.067Z,34.04
2018-06-17T04:32:41.987Z,34.35
2018-06-17T04:35:10.783Z,35.21
2018-06-17T04:37:39.557Z,35.47
2018-06-17T04:40:08.393Z,35.40
2018-06-17T04:42:37.352Z,36.11
2018-06-17T04:45:06.140Z,35.95
2018-06-17T04:47:34.968Z,36.33
2018-06-17T04:50:03.892Z,37.22
2018-06-17T04:52:32.673Z,37.29
2018-06-17T04:55:01.508Z,37.68
2018-06-17T04:57:30.474Z,37.95
2018-06-17T04:59:59.283Z,38.08
2018-06-17T05:02:28.088Z,38.21
2018-06-17T05:04:56.940Z,38.04
2018-06-17T05:07:25.720Z,38.84
2018-06-17T05:09:54.560Z,38.57
2018-06-17T05:12:23.375Z,38.40
2018-06-17T05:14:52.146Z,38.01
2018-06-17T05:17:20.951Z,37.10
2018-06-17T05:19:49.796Z,36.81
2018-06-17T05:22:18.632Z,35.74
2018-06-17T05:24:47.439Z,35.00
2018-06-17T05:27:16.388Z,35.18
2018-06-17T05:29:45.218Z,34.94
2018-06-17T05:32:13.976Z,33.98
2018-06-17T05:34:42.778Z,33.02
2018-06-17T05:37:11.650Z,32.14
2018-06-17T05:39:40.460Z,31.19
2018-06-17T05:42:09.291Z,31.14
2018-06-17T05:44:38.162Z,30.99
2018-06-17T05:47:06.936Z,30.91
2018-06-17T05:49:36.069Z,30.23
2018-06-17T05:52:04.892Z,30.23
2018-06-17T05:54:33.686Z,30.44
2018-06-17T05:57:02.530Z,30.40
2018-06-17T05:59:31.303Z,29.93
2018-06-17T06:02:00.196Z,28.70
2018-06-17T06:04:29.489Z,28.35
2018-06-17T06:06:58.281Z,28.30
2018-06-17T06:09:27.142Z,28.52
2018-06-17T06:11:56.120Z,28.47
2018-06-17T06:14:24.925Z,28.42
2018-06-17T06:16:53.750Z,27.55
2018-06-17T06:19:22.580Z,27.36
2018-06-17T06:21:51.427Z,27.54
2018-06-17T06:24:20.328Z,27.35
2018-06-17T06:26:49.502Z,27.45
2018-06-17T06:29:18.346Z,27.61
2018-06-17T06:31:47.176Z,28.07
2018-06-17T06:34:16.173Z,28.33
2018-06-17T06:36:44.927Z,27.69
2018-06-17T06:39:13.715Z,26.76
2018-06-17T06:41:42.667Z,26.32
2018-06-17T06:44:11.504Z,26.08
2018-06-17T06:46:40.356Z,25.62
2018-06-17T06:49:09.312Z,25.34
2018-06-17T06:51:38.121Z,25.34
2018-06-17T06:54:06.988Z,25.04
2018-06-17T06:56:36.211Z,24.83
2018-06-17T06:59:05.078Z,24.62
2018-06-17T07:01:44.869Z,24.80
2018-06-17T07:04:24.618Z,24.82
2018-06-17T07:07:04.604Z,25.07
2018-06-17T07:09:44.975Z,25.05
2018-06-17T07:12:13.960Z,25.69
2018-06-17T07:14:42.796Z,26.23
2018-06-17T07:17:22.635Z,27.10
2018-06-17T07:19:51.458Z,27.52
2018-06-17T07:22:20.380Z,27.75
2018-06-17T07:24:49.316Z,27.58
2018-06-17T07:27:28.914Z,27.58
2018-06-17T07:29:57.735Z,27.22
2018-06-17T07:32:26.604Z,26.79
2018-06-17T07:34:55.497Z,26.61
2018-06-17T07:37:24.410Z,26.18
2018-06-17T07:40:56.816Z,26.25
2018-06-17T07:43:25.840Z,26.13
2018-06-17T07:45:54.747Z,25.91
2018-06-17T07:49:40.901Z,25.50
2018-06-17T07:52:21.142Z,25.29
2018-06-17T07:54:50.359Z,25.33
2018-06-17T07:57:20.510Z,25.39
2018-06-17T07:59:49.307Z,25.24
2018-06-17T08:02:18.522Z,25.13
2018-06-17T08:04:47.388Z,25.28
2018-06-17T08:07:16.241Z,25.41
2018-06-17T08:09:45.497Z,25.41
2018-06-17T08:12:14.518Z,25.34
2018-06-17T08:14:43.361Z,25.44
2018-06-17T08:17:12.290Z,25.55
2018-06-17T08:19:41.586Z,25.22
2018-06-17T08:22:10.370Z,25.05
2018-06-17T08:24:39.378Z,24.83
2018-06-17T08:27:08.255Z,25.08
2018-06-17T08:29:37.128Z,25.06
2018-06-17T08:32:06.204Z,25.42
2018-06-17T08:34:34.991Z,25.41
2018-06-17T08:37:03.793Z,25.42
2018-06-17T08:39:33.016Z,25.38
2018-06-17T08:42:01.800Z,25.51
2018-06-17T08:44:30.691Z,25.93
2018-06-17T08:46:59.614Z,25.69
2018-06-17T08:49:28.456Z,25.20
2018-06-17T08:51:57.274Z,25.23
2018-06-17T08:54:26.352Z,25.24
2018-06-17T08:56:55.131Z,25.20
2018-06-17T08:59:23.928Z,24.88
2018-06-17T09:01:52.779Z,25.10
2018-06-17T09:04:21.627Z,25.20
2018-06-17T09:06:50.409Z,25.16
2018-06-17T09:09:19.262Z,25.65
2018-06-17T09:11:48.114Z,25.80
2018-06-17T09:14:16.894Z,25.96
2018-06-17T09:16:46.179Z,26.28
2018-06-17T09:19:15.008Z,26.15
2018-06-17T09:21:43.869Z,26.23
2018-06-17T09:24:13.142Z,26.16
2018-06-17T09:26:42.013Z,26.25
2018-06-17T09:29:10.804Z,25.72
2018-06-17T09:31:39.701Z,25.81
2018-06-17T09:34:08.546Z,25.80
2018-06-17T09:36:37.364Z,25.86
2018-06-17T09:39:08.406Z,26.00
2018-06-17T09:41:37.220Z,26.33
2018-06-17T09:44:06.046Z,26.52
2018-06-17T09:46:34.907Z,26.71
2018-06-17T09:49:03.761Z,26.78
2018-06-17T09:51:32.620Z,26.79
2018-06-17T09:54:01.461Z,26.26
2018-06-17T09:56:30.258Z,26.05
2018-06-17T09:58:59.075Z,26.37
2018-06-17T10:01:28.119Z,26.23
2018-06-17T10:03:56.894Z,26.10
2018-06-17T10:06:25.847Z,26.43
2018-06-17T10:08:54.691Z,26.23
2018-06-17T10:11:23.525Z,26.25
2018-06-17T10:13:52.460Z,25.86
2018-06-17T10:16:21.466Z,25.85
2018-06-17T10:18:50.298Z,25.92
2018-06-17T10:21:19.157Z,26.07
2018-06-17T10:23:48.136Z,26.26
2018-06-17T10:26:16.975Z,26.83
2018-06-17T10:28:45.853Z,27.03
2018-06-17T10:31:14.741Z,27.15
2018-06-17T10:33:43.589Z,27.30
2018-06-17T10:36:12.404Z,27.26
2018-06-17T10:38:41.371Z,27.30
2018-06-17T10:41:10.228Z,27.70
2018-06-17T10:43:39.075Z,28.15
2018-06-17T10:46:08.166Z,28.29
2018-06-17T10:48:36.989Z,28.19
2018-06-17T10:51:05.872Z,28.15
2018-06-17T10:53:35.060Z,28.23
2018-06-17T10:56:04.017Z,28.15
2018-06-17T10:58:32.731Z,28.12
2018-06-17T11:01:01.562Z,27.76
2018-06-17T11:03:30.380Z,27.54
2018-06-17T11:05:59.185Z,27.28
2018-06-17T11:08:28.152Z,26.92
2018-06-17T11:10:56.969Z,26.57
2018-06-17T11:13:25.780Z,26.21
2018-06-17T11:15:55.001Z,25.80
2018-06-17T11:18:23.854Z,25.28
2018-06-17T11:20:52.896Z,24.68
2018-06-17T11:23:21.764Z,24.10
2018-06-17T11:25:50.618Z,23.23
2018-06-17T11:28:19.427Z,23.00
2018-06-17T11:30:48.370Z,22.78
2018-06-17T11:33:17.226Z,22.74
2018-06-17T11:35:46.072Z,22.68
2018-06-17T11:38:14.930Z,22.66
2018-06-17T11:40:43.708Z,22.63
2018-06-17T11:43:12.532Z,22.62
2018-06-17T11:45:41.524Z,22.57
2018-06-17T11:48:10.327Z,22.56
2018-06-17T11:50:39.127Z,22.58
2018-06-17T11:53:08.132Z,22.63
2018-06-17T11:55:36.945Z,22.59
2018-06-17T11:58:05.867Z,22.60
2018-06-17T12:00:34.761Z,22.57
2018-06-17T12:03:03.636Z,22.60
2018-06-17T12:05:32.424Z,22.55
2018-06-17T12:08:01.320Z,22.58
2018-06-17T12:10:30.117Z,22.60
2018-06-17T12:12:58.967Z,22.56
2018-06-17T12:15:28.221Z,22.48
2018-06-17T12:17:57.106Z,22.47
2018-06-17T12:20:25.933Z,22.37
2018-06-17T12:22:54.932Z,22.24
2018-06-17T12:25:23.846Z,22.24
2018-06-17T12:27:52.632Z,22.16
2018-06-17T12:30:21.671Z,22.22
2018-06-17T12:32:50.570Z,22.34
2018-06-17T12:35:19.395Z,22.45
2018-06-17T12:37:48.517Z,22.59
2018-06-17T12:40:17.330Z,22.70
2018-06-17T12:42:46.122Z,22.75
2018-06-17T12:45:14.990Z,22.87
2018-06-17T12:47:43.809Z,22.91
2018-06-17T12:50:12.644Z,23.07
2018-06-17T12:52:41.563Z,23.28
2018-06-17T12:55:10.354Z,23.52
2018-06-17T12:57:39.234Z,23.77
2018-06-17T13:00:08.567Z,24.04
2018-06-17T13:02:37.385Z,24.28
2018-06-17T13:05:06.461Z,24.42
2018-06-17T13:07:35.439Z,24.54
2018-06-17T13:10:04.349Z,24.59
2018-06-17T13:12:33.162Z,24.65
2018-06-17T13:15:02.031Z,24.88
2018-06-17T13:17:30.883Z,25.04
2018-06-17T13:19:59.741Z,25.14
2018-06-17T13:22:28.676Z,25.37
2018-06-17T13:24:57.753Z,25.72
2018-06-17T13:27:26.726Z,26.03
2018-06-17T13:29:55.756Z,26.30
2018-06-17T13:32:24.616Z,26.41
2018-06-17T13:34:53.410Z,26.45
2018-06-17T13:37:22.380Z,26.35
2018-06-17T13:39:51.315Z,26.21
2018-06-17T13:42:20.155Z,26.13
2018-06-17T13:44:49.119Z,25.75
2018-06-17T13:47:18.089Z,25.47
2018-06-17T13:49:46.903Z,24.90
2018-06-17T13:52:16.163Z,24.50
2018-06-17T13:54:45.007Z,23.99
2018-06-17T13:57:13.861Z,23.73
2018-06-17T13:59:42.715Z,23.58
2018-06-17T14:02:11.561Z,23.48
2018-06-17T14:04:40.408Z,23.42
2018-06-17T14:07:09.551Z,23.17
2018-06-17T14:09:38.471Z,22.90
2018-06-17T14:12:07.580Z,22.02
2018-06-17T14:14:36.628Z,21.78
2018-06-17T14:17:05.616Z,21.72
2018-06-17T14:19:34.491Z,21.61
2018-06-17T14:22:03.925Z,21.57
2018-06-17T14:24:32.843Z,21.51
2018-06-17T14:27:01.754Z,21.50
2018-06-17T14:29:30.783Z,21.52
2018-06-17T14:31:59.693Z,21.38
2018-06-17T14:34:28.562Z,21.36
2018-06-17T14:36:57.712Z,21.37
2018-06-17T14:39:26.548Z,21.40
2018-06-17T14:42:00.753Z,21.49
2018-06-17T14:44:34.601Z,21.60
2018-06-17T14:47:08.732Z,21.63
2018-06-17T14:49:42.726Z,21.78
2018-06-17T14:52:16.663Z,21.95
2018-06-17T14:54:45.489Z,22.12
2018-06-17T14:57:14.427Z,22.28
2018-06-17T14:59:43.315Z,22.41
2018-06-17T15:02:12.171Z,22.51
2018-06-17T15:04:41.033Z,22.55
2018-06-17T15:07:10.239Z,22.52
2018-06-17T15:09:39.234Z,22.78
2018-06-17T15:12:08.375Z,23.06
2018-06-17T15:14:37.716Z,23.28
2018-06-17T15:17:07.064Z,23.58
2018-06-17T15:19:36.005Z,23.78
2018-06-17T15:22:05.118Z,23.99
2018-06-17T15:24:33.991Z,23.97
2018-06-17T15:27:02.898Z,23.74
2018-06-17T15:29:32.041Z,23.78
2018-06-17T15:32:06.109Z,23.66
2018-06-17T15:34:40.008Z,23.58
2018-06-17T15:37:13.913Z,23.48
2018-06-17T15:39:47.778Z,23.56
2018-06-17T15:42:16.609Z,23.69
2018-06-17T15:44:45.553Z,23.74
2018-06-17T15:47:14.414Z,23.67
2018-06-17T15:49:43.229Z,23.61
2018-06-17T15:52:12.154Z,23.41
2018-06-17T15:54:41.217Z,23.34
2018-06-17T15:57:10.071Z,23.29
2018-06-17T15:59:38.964Z,23.28
2018-06-17T16:02:08.034Z,23.37
2018-06-17T16:04:36.873Z,23.27
2018-06-17T16:07:05.825Z,22.95
2018-06-17T16:09:34.813Z,22.58
2018-06-17T16:12:08.689Z,22.32
2018-06-17T16:14:42.768Z,21.98
2018-06-17T16:17:16.757Z,21.63
2018-06-17T16:19:50.614Z,21.57
2018-06-17T16:22:19.486Z,21.36
2018-06-17T16:24:48.925Z,21.24
2018-06-17T16:27:18.023Z,21.16
2018-06-17T16:29:46.876Z,21.14
2018-06-17T16:32:15.794Z,21.02
2018-06-17T16:34:45.016Z,20.94
2018-06-17T16:37:13.853Z,20.78
2018-06-17T16:39:42.704Z,20.66
2018-06-17T16:42:12.241Z,20.55
2018-06-17T16:44:41.169Z,20.51
2018-06-17T16:47:10.093Z,20.43
2018-06-17T16:49:38.995Z,20.33
2018-06-17T16:52:12.955Z,20.25
2018-06-17T16:54:47.064Z,20.13
2018-06-17T16:57:20.907Z,20.05
2018-06-17T16:59:58.524Z,19.93
2018-06-17T17:02:27.424Z,19.83
2018-06-17T17:04:56.720Z,19.72
2018-06-17T17:07:25.724Z,19.63
2018-06-17T17:09:54.670Z,19.56
2018-06-17T17:12:23.650Z,19.42
2018-06-17T17:14:52.754Z,19.45
2018-06-17T17:17:21.676Z,19.36
2018-06-17T17:19:50.546Z,19.36
2018-06-17T17:22:19.477Z,19.35
2018-06-17T17:24:48.403Z,19.29
2018-06-17T17:27:17.209Z,19.26
2018-06-17T17:29:46.151Z,19.24
2018-06-17T17:32:20.003Z,19.23
2018-06-17T17:34:54.350Z,19.14
2018-06-17T17:37:28.229Z,19.06
2018-06-17T17:40:02.185Z,19.00
2018-06-17T17:42:31.024Z,18.95
2018-06-17T17:45:05.240Z,18.91
2018-06-17T17:47:34.768Z,18.85
2018-06-17T17:50:03.865Z,18.80
2018-06-17T17:52:32.831Z,18.80
2018-06-17T17:55:01.867Z,18.78
2018-06-17T17:57:30.825Z,18.74
2018-06-17T17:59:59.815Z,18.68
2018-06-17T18:02:28.794Z,18.61
2018-06-17T18:04:57.737Z,18.60
2018-06-17T18:07:26.776Z,18.54
2018-06-17T18:09:55.825Z,18.49
2018-06-17T18:12:24.749Z,18.49
2018-06-17T18:14:53.673Z,18.47
2018-06-17T18:17:22.625Z,18.46
2018-06-17T18:19:51.727Z,18.42
2018-06-17T18:22:20.836Z,18.42
2018-06-17T18:24:54.821Z,18.35
2018-06-17T18:27:29.150Z,18.32
2018-06-17T18:30:03.021Z,18.24
2018-06-17T18:32:37.043Z,18.19
2018-06-17T18:35:10.986Z,18.14
2018-06-17T18:50:29.633Z,18.13
2018-06-17T18:52:58.544Z,17.90
2018-06-17T18:55:27.428Z,17.80
2018-06-17T18:57:56.613Z,17.77
2018-06-17T19:00:25.464Z,17.75
2018-06-17T19:02:54.458Z,17.72
2018-06-17T19:05:23.540Z,17.69
2018-06-17T19:07:52.405Z,17.65
2018-06-17T19:10:26.651Z,17.66
2018-06-17T19:13:00.628Z,17.65
2018-06-17T19:15:34.671Z,17.59
2018-06-17T19:18:06.427Z,17.51
2018-06-17T19:20:42.141Z,17.44
2018-06-17T19:23:11.081Z,17.38
2018-06-17T19:25:39.913Z,17.33
2018-06-17T19:28:08.813Z,17.34
2018-06-17T19:30:37.659Z,17.26
2018-06-17T19:33:06.520Z,17.20
2018-06-17T19:35:35.397Z,17.18
2018-06-17T19:38:04.348Z,17.11
2018-06-17T19:40:33.173Z,17.05
2018-06-17T19:43:02.125Z,17.03
2018-06-17T19:45:31.068Z,16.97
2018-06-17T19:47:59.939Z,16.96
2018-06-17T19:50:34.994Z,16.92
2018-06-17T19:53:08.993Z,16.87
2018-06-17T19:55:43.061Z,16.82
2018-06-17T19:58:17.095Z,16.82
2018-06-17T20:00:47.772Z,16.78
2018-06-17T20:03:16.563Z,16.73
2018-06-17T20:05:45.444Z,16.69
2018-06-17T20:08:14.462Z,16.64
2018-06-17T20:10:43.284Z,16.64
2018-06-17T20:13:12.089Z,16.62
2018-06-17T20:15:41.063Z,16.51
2018-06-17T20:18:10.423Z,16.54
2018-06-17T20:20:39.287Z,16.55
2018-06-17T20:23:08.141Z,16.55
2018-06-17T20:25:36.994Z,16.51
2018-06-17T20:28:05.864Z,16.54
2018-06-17T20:30:34.685Z,16.53
2018-06-17T20:33:08.420Z,16.53
2018-06-17T20:35:42.488Z,16.56
2018-06-17T20:38:16.423Z,16.53
2018-06-17T20:40:50.301Z,16.49
2018-06-17T20:43:24.171Z,16.50
2018-06-17T20:45:53.004Z,16.47
2018-06-17T20:48:21.805Z,16.44
2018-06-17T20:50:50.626Z,16.42
2018-06-17T20:53:19.608Z,16.44
2018-06-17T20:55:48.410Z,16.38
2018-06-17T20:58:17.272Z,16.41
2018-06-17T21:00:46.125Z,16.44
2018-06-17T21:03:15.078Z,16.45
2018-06-17T21:05:43.854Z,16.44
2018-06-17T21:08:12.894Z,16.45
2018-06-17T21:10:41.688Z,16.42
2018-06-17T21:13:10.482Z,16.42
2018-06-17T21:15:39.685Z,16.41
2018-06-17T21:18:08.473Z,16.42
2018-06-17T21:20:42.702Z,16.39
2018-06-17T21:23:16.551Z,16.42
2018-06-17T21:25:50.564Z,16.39
2018-06-17T21:28:19.356Z,16.37
2018-06-17T21:30:48.146Z,16.36
2018-06-17T21:33:16.964Z,16.34
2018-06-17T21:35:45.767Z,16.33
2018-06-17T21:38:14.543Z,16.32
2018-06-17T21:40:43.488Z,16.31
2018-06-17T21:43:12.297Z,16.26
2018-06-17T21:45:41.179Z,16.27
2018-06-17T21:48:10.180Z,16.25
2018-06-17T21:50:38.935Z,16.24
2018-06-17T21:53:07.759Z,16.26
2018-06-17T21:55:36.903Z,16.20
2018-06-17T21:58:05.655Z,16.18
2018-06-17T22:00:34.496Z,16.14
2018-06-17T22:03:03.721Z,16.13
2018-06-17T22:05:32.568Z,16.09
2018-06-17T22:08:06.415Z,16.08
2018-06-17T22:10:40.316Z,16.11
2018-06-17T22:13:09.110Z,16.06
2018-06-17T22:15:42.932Z,16.03
2018-06-17T22:18:11.808Z,16.05
2018-06-17T22:20:40.639Z,16.07
2018-06-17T22:23:09.437Z,16.04
2018-06-17T22:25:38.234Z,16.03
2018-06-17T22:28:07.007Z,16.00
2018-06-17T22:30:35.789Z,15.97
2018-06-17T22:33:04.849Z,15.96
2018-06-17T22:35:33.611Z,15.92
2018-06-17T22:38:02.468Z,15.88
2018-06-17T22:40:31.436Z,15.87
2018-06-17T22:43:00.228Z,15.84
2018-06-17T22:45:29.046Z,15.80
2018-06-17T22:47:58.031Z,15.80
2018-06-17T22:50:26.809Z,15.78
2018-06-17T22:53:06.552Z,15.76
2018-06-17T22:55:35.327Z,15.75
2018-06-17T22:58:09.415Z,15.72
2018-06-17T23:00:43.308Z,15.72
2018-06-17T23:03:17.392Z,15.70
2018-06-17T23:05:51.252Z,15.71
2018-06-17T23:08:25.171Z,15.73
2018-06-17T23:10:54.042Z,15.71
2018-06-17T23:13:22.878Z,15.68
2018-06-17T23:15:51.715Z,15.66
2018-06-17T23:18:20.476Z,15.64
2018-06-17T23:20:49.288Z,15.66
2018-06-17T23:23:18.425Z,15.63
2018-06-17T23:25:47.300Z,15.60
2018-06-17T23:28:16.041Z,15.59
2018-06-17T23:30:44.998Z,15.56
2018-06-17T23:33:13.719Z,15.55
2018-06-17T23:35:42.486Z,15.58
2018-06-17T23:38:11.591Z,15.58
2018-06-17T23:40:40.364Z,15.57
2018-06-17T23:43:09.225Z,15.53
2018-06-17T23:45:42.102Z,15.50
2018-06-17T23:48:16.108Z,15.46
2018-06-17T23:52:56.242Z,15.48
2018-06-17T23:55:30.068Z,15.46
2018-06-17T23:57:59.092Z,15.44
